Florida State University, Florida
Current Conditions -  °F | °C
As of 3:53 AM on Wednesday 22 Oct 2014 (Local Time) from KTLH Reporting Station
Clear Clear  
Wind Chill: 54°   Ceiling: Unl
Heat Index: 54°   Visibility: 10mi
Dew Point: 49°   Wind: 3mph
Humidity: 83%   Direction: NA
Pressure: 29.98"   Gusts: 28mph
Location:  30.4396°N, 84.2807°W
Report Text: KTLH 220753Z AUTO VRB03G24KT 10SM CLR 12/09 A2998 RMK AO2 SLP151 T01220094 $
Loading
Personal Weather Stations






























Interactive Weather Map
Tropical Storm Tracking
New forecast layout! Learn more

10-Day Weather Forecast

Advertisements
Track Severe Weather on mobile